Georgiana — V7NO2 — position and weather

sailwx.info

Track history (hours):
 
Tides and Currents Weather Stations Pressure Air Temp Water Temp Dewpoint Dewpoint Depression Visibility Wind Speed Wind Dir Waves Ship Positions

Georgiana

Last reported at 2018-Jun-12 05:29 UTC. Time now 2018-Jun-23 16:13 UTC.
Position N 41°44' E 012°15'.
Warning: this ship's position is 11 days out of date.

Length 30 m; draft 1.9 m.

Type: Pleasure craft. MMSI: 538070430.

Date/timePositionNaut miles runAvg speedWind from/ knotsBaromVisibWave heightAir tempDewpointWater temp
2018-Jun-12 05:29N 41°44' E 012°15'0 0.0
2018-Jun-12 04:59N 41°44' E 012°15'0 0.0
2018-Jun-12 00:23N 41°44' E 012°15'  
2018-Jun-09 05:21N 40°49' E 013°33'3 8.7
2018-Jun-09 05:00N 40°47' E 013°36'4 8.6
2018-Jun-09 04:31N 40°44' E 013°40'5 8.6
2018-Jun-09 03:58N 40°41' E 013°44'4 8.3
2018-Jun-09 03:30N 40°38' E 013°48'4 8.2
2018-Jun-09 03:00N 40°36' E 013°52'4 8.3
2018-Jun-09 02:30N 40°33' E 013°56'4 8.4
2018-Jun-09 02:00N 40°30' E 014°00'5 8.5
2018-Jun-09 01:22N 40°27' E 014°06'8 8.7
2018-Jun-09 00:31N 40°21' E 014°13'1 8.8
2018-Jun-09 00:27N 40°21' E 014°13'116 8.5
2018-Jun-08 10:51N 38°32' E 015°04'3 9.2
2018-Jun-08 10:30N 38°29' E 015°06'5 9.1
2018-Jun-08 10:00N 38°25' E 015°09'5 9.0
2018-Jun-08 09:30N 38°22' E 015°12'4 8.9
2018-Jun-08 09:00N 38°18' E 015°15'4 8.6
2018-Jun-08 08:30N 38°14' E 015°15'0 0.8
2018-Jun-08 07:59N 38°14' E 015°15'0 0.0
2018-Jun-08 07:29N 38°14' E 015°15'0 0.0
2018-Jun-08 06:59N 38°14' E 015°15'0 0.0
2018-Jun-08 06:29N 38°14' E 015°15'0 0.0
2018-Jun-08 05:59N 38°14' E 015°15'0 0.0
2018-Jun-08 05:29N 38°14' E 015°15'0 0.0
2018-Jun-08 04:59N 38°14' E 015°15'0 0.0
2018-Jun-08 04:29N 38°14' E 015°15'0 0.0
2018-Jun-08 03:59N 38°14' E 015°15'0 0.0
2018-Jun-08 03:29N 38°14' E 015°15'0 0.0
2018-Jun-08 02:59N 38°14' E 015°15'0 0.0
2018-Jun-08 02:29N 38°14' E 015°15'0 0.0
2018-Jun-08 01:59N 38°14' E 015°15'0 0.0
2018-Jun-08 01:23N 38°14' E 015°15'0 0.0
2018-Jun-08 00:59N 38°14' E 015°15'0 0.0
2018-Jun-08 00:29N 38°14' E 015°15'0 0.0
2018-Jun-07 23:59N 38°14' E 015°15'0 0.0
2018-Jun-07 23:29N 38°14' E 015°15'0 0.0
2018-Jun-07 22:59N 38°14' E 015°15'0 0.0
2018-Jun-07 22:29N 38°14' E 015°15'0 0.0
2018-Jun-07 21:59N 38°14' E 015°15'0 0.0
2018-Jun-07 21:29N 38°14' E 015°15'0 0.0
2018-Jun-07 20:59N 38°14' E 015°15'0 0.0
2018-Jun-07 20:29N 38°14' E 015°15'0 0.0
2018-Jun-07 19:59N 38°14' E 015°15'0 0.0
2018-Jun-07 19:29N 38°14' E 015°15'0 0.0
2018-Jun-07 18:59N 38°14' E 015°15'0 0.0
2018-Jun-07 18:29N 38°14' E 015°15'0 0.0
2018-Jun-07 17:59N 38°14' E 015°15'0 0.0
2018-Jun-07 17:29N 38°14' E 015°15'0 0.0
2018-Jun-07 16:59N 38°14' E 015°15'0 0.0
2018-Jun-07 16:29N 38°14' E 015°15'0 0.0
2018-Jun-07 15:59N 38°14' E 015°15'0 0.0
2018-Jun-07 15:29N 38°14' E 015°15'0 0.0
2018-Jun-07 14:59N 38°14' E 015°15'0 0.0
2018-Jun-07 14:29N 38°14' E 015°15'0 0.0
2018-Jun-07 13:59N 38°14' E 015°15'0 0.0
2018-Jun-07 13:29N 38°14' E 015°15'0 0.0
2018-Jun-07 12:59N 38°14' E 015°15'0 0.0
2018-Jun-07 12:29N 38°14' E 015°15'0 0.0
2018-Jun-07 11:59N 38°14' E 015°15'0 0.0
2018-Jun-07 11:29N 38°14' E 015°15'0 0.0
2018-Jun-07 10:59N 38°14' E 015°15'0 0.0
2018-Jun-07 10:29N 38°14' E 015°15'0 0.0
2018-Jun-07 09:59N 38°14' E 015°15'0 0.0
2018-Jun-07 09:30N 38°14' E 015°15'0 0.3
2018-Jun-07 09:00N 38°14' E 015°15'3 5.5
2018-Jun-07 08:30N 38°16' E 015°15'4 8.5
2018-Jun-07 08:00N 38°19' E 015°12'4 8.3
2018-Jun-07 07:29N 38°21' E 015°07'5 8.7
2018-Jun-07 06:57N 38°24' E 015°02'7 0.3
2018-Jun-06 09:47N 38°28' E 014°54'12 0.3
2018-Jun-04 12:07N 38°38' E 015°04'0 0.0
2018-Jun-04 11:48N 38°38' E 015°04'0 0.0
2018-Jun-04 11:17N 38°38' E 015°04'0 0.0
2018-Jun-04 10:52N 38°38' E 015°04'3 5.8
2018-Jun-04 10:17N 38°34' E 015°02'4 9.5
2018-Jun-04 09:52N 38°31' E 015°00'3 9.3
2018-Jun-04 09:30N 38°28' E 014°59'5 0.2
2018-Jun-03 13:55N 38°23' E 014°57'2 3.9
2018-Jun-03 13:28N 38°22' E 014°58'9 9.9
2018-Jun-03 12:35N 38°21' E 015°09'110.1
2018-Jun-03 12:29N 38°21' E 015°11'5 9.8
2018-Jun-03 12:00N 38°21' E 015°17'5 9.6
2018-Jun-03 11:30N 38°20' E 015°23'5 9.7
2018-Jun-03 11:00N 38°20' E 015°29'5 9.3
2018-Jun-03 10:30N 38°19' E 015°35'4 8.9
2018-Jun-03 10:00N 38°18' E 015°40'3 5.6
2018-Jun-03 09:27N 38°15' E 015°39'4 7.8
2018-Jun-03 08:59N 38°11' E 015°37'5 9.1
2018-Jun-03 08:29N 38°07' E 015°36'4 9.2
2018-Jun-03 08:00N 38°03' E 015°35'4 7.7
2018-Jun-03 07:28N 37°59' E 015°33'7 9.1
2018-Jun-03 06:45N 37°54' E 015°27'  
Track history (hours):
 
Tides and Currents Weather Stations Pressure Air Temp Water Temp Dewpoint Dewpoint Depression Visibility Wind Speed Wind Dir Waves Ship Positions

Georgiana

Last reported at 2018-Jun-12 05:29 UTC. Time now 2018-Jun-23 16:13 UTC.
Position N 41°44' E 012°15'.
Warning: this ship's position is 11 days out of date.

Length 30 m; draft 1.9 m.

Type: Pleasure craft. MMSI: 538070430.

Date/timePositionNaut miles runAvg speedWind from/ knotsBaromVisibWave heightAir tempDewpointWater temp
2018-Jun-12 05:29N 41°44' E 012°15'0 0.0
2018-Jun-12 04:59N 41°44' E 012°15'0 0.0
2018-Jun-12 00:23N 41°44' E 012°15'  
2018-Jun-09 05:21N 40°49' E 013°33'3 8.7
2018-Jun-09 05:00N 40°47' E 013°36'4 8.6
2018-Jun-09 04:31N 40°44' E 013°40'5 8.6
2018-Jun-09 03:58N 40°41' E 013°44'4 8.3
2018-Jun-09 03:30N 40°38' E 013°48'4 8.2
2018-Jun-09 03:00N 40°36' E 013°52'4 8.3
2018-Jun-09 02:30N 40°33' E 013°56'4 8.4
2018-Jun-09 02:00N 40°30' E 014°00'5 8.5
2018-Jun-09 01:22N 40°27' E 014°06'8 8.7
2018-Jun-09 00:31N 40°21' E 014°13'1 8.8
2018-Jun-09 00:27N 40°21' E 014°13'116 8.5
2018-Jun-08 10:51N 38°32' E 015°04'3 9.2
2018-Jun-08 10:30N 38°29' E 015°06'5 9.1
2018-Jun-08 10:00N 38°25' E 015°09'5 9.0
2018-Jun-08 09:30N 38°22' E 015°12'4 8.9
2018-Jun-08 09:00N 38°18' E 015°15'4 8.6
2018-Jun-08 08:30N 38°14' E 015°15'0 0.8
2018-Jun-08 07:59N 38°14' E 015°15'0 0.0
2018-Jun-08 07:29N 38°14' E 015°15'0 0.0
2018-Jun-08 06:59N 38°14' E 015°15'0 0.0
2018-Jun-08 06:29N 38°14' E 015°15'0 0.0
2018-Jun-08 05:59N 38°14' E 015°15'0 0.0
2018-Jun-08 05:29N 38°14' E 015°15'0 0.0
2018-Jun-08 04:59N 38°14' E 015°15'0 0.0
2018-Jun-08 04:29N 38°14' E 015°15'0 0.0
2018-Jun-08 03:59N 38°14' E 015°15'0 0.0
2018-Jun-08 03:29N 38°14' E 015°15'0 0.0
2018-Jun-08 02:59N 38°14' E 015°15'0 0.0
2018-Jun-08 02:29N 38°14' E 015°15'0 0.0
2018-Jun-08 01:59N 38°14' E 015°15'0 0.0
2018-Jun-08 01:23N 38°14' E 015°15'0 0.0
2018-Jun-08 00:59N 38°14' E 015°15'0 0.0
2018-Jun-08 00:29N 38°14' E 015°15'0 0.0
2018-Jun-07 23:59N 38°14' E 015°15'0 0.0
2018-Jun-07 23:29N 38°14' E 015°15'0 0.0
2018-Jun-07 22:59N 38°14' E 015°15'0 0.0
2018-Jun-07 22:29N 38°14' E 015°15'0 0.0
2018-Jun-07 21:59N 38°14' E 015°15'0 0.0
2018-Jun-07 21:29N 38°14' E 015°15'0 0.0
2018-Jun-07 20:59N 38°14' E 015°15'0 0.0
2018-Jun-07 20:29N 38°14' E 015°15'0 0.0
2018-Jun-07 19:59N 38°14' E 015°15'0 0.0
2018-Jun-07 19:29N 38°14' E 015°15'0 0.0
2018-Jun-07 18:59N 38°14' E 015°15'0 0.0
2018-Jun-07 18:29N 38°14' E 015°15'0 0.0
2018-Jun-07 17:59N 38°14' E 015°15'0 0.0
2018-Jun-07 17:29N 38°14' E 015°15'0 0.0
2018-Jun-07 16:59N 38°14' E 015°15'0 0.0
2018-Jun-07 16:29N 38°14' E 015°15'0 0.0
2018-Jun-07 15:59N 38°14' E 015°15'0 0.0
2018-Jun-07 15:29N 38°14' E 015°15'0 0.0
2018-Jun-07 14:59N 38°14' E 015°15'0 0.0
2018-Jun-07 14:29N 38°14' E 015°15'0 0.0
2018-Jun-07 13:59N 38°14' E 015°15'0 0.0
2018-Jun-07 13:29N 38°14' E 015°15'0 0.0
2018-Jun-07 12:59N 38°14' E 015°15'0 0.0
2018-Jun-07 12:29N 38°14' E 015°15'0 0.0
2018-Jun-07 11:59N 38°14' E 015°15'0 0.0
2018-Jun-07 11:29N 38°14' E 015°15'0 0.0
2018-Jun-07 10:59N 38°14' E 015°15'0 0.0
2018-Jun-07 10:29N 38°14' E 015°15'0 0.0
2018-Jun-07 09:59N 38°14' E 015°15'0 0.0
2018-Jun-07 09:30N 38°14' E 015°15'0 0.3
2018-Jun-07 09:00N 38°14' E 015°15'3 5.5
2018-Jun-07 08:30N 38°16' E 015°15'4 8.5
2018-Jun-07 08:00N 38°19' E 015°12'4 8.3
2018-Jun-07 07:29N 38°21' E 015°07'5 8.7
2018-Jun-07 06:57N 38°24' E 015°02'7 0.3
2018-Jun-06 09:47N 38°28' E 014°54'12 0.3
2018-Jun-04 12:07N 38°38' E 015°04'0 0.0
2018-Jun-04 11:48N 38°38' E 015°04'0 0.0
2018-Jun-04 11:17N 38°38' E 015°04'0 0.0
2018-Jun-04 10:52N 38°38' E 015°04'3 5.8
2018-Jun-04 10:17N 38°34' E 015°02'4 9.5
2018-Jun-04 09:52N 38°31' E 015°00'3 9.3
2018-Jun-04 09:30N 38°28' E 014°59'5 0.2
2018-Jun-03 13:55N 38°23' E 014°57'2 3.9
2018-Jun-03 13:28N 38°22' E 014°58'9 9.9
2018-Jun-03 12:35N 38°21' E 015°09'110.1
2018-Jun-03 12:29N 38°21' E 015°11'5 9.8
2018-Jun-03 12:00N 38°21' E 015°17'5 9.6
2018-Jun-03 11:30N 38°20' E 015°23'5 9.7
2018-Jun-03 11:00N 38°20' E 015°29'5 9.3
2018-Jun-03 10:30N 38°19' E 015°35'4 8.9
2018-Jun-03 10:00N 38°18' E 015°40'3 5.6
2018-Jun-03 09:27N 38°15' E 015°39'4 7.8
2018-Jun-03 08:59N 38°11' E 015°37'5 9.1
2018-Jun-03 08:29N 38°07' E 015°36'4 9.2
2018-Jun-03 08:00N 38°03' E 015°35'4 7.7
2018-Jun-03 07:28N 37°59' E 015°33'7 9.1
2018-Jun-03 06:45N 37°54' E 015°27'  

Dump ship's entire track history